Kaiwo Maru — JMMU — position and weather

sailwx.info

Track history (hours):
 
Tides and Currents Weather Stations Pressure Air Temp Water Temp Dewpoint Dewpoint Depression Visibility Wind Speed Wind Dir Waves Ship Positions

Kaiwo Maru (Japan)

Built in 1989. Trains merchant marine cadets for Japan's National Institute for Sea Training.

Ship's website: http://www.kohkun.go.jp/en/ships/kaiwomaru.html

Last reported at 2020-Jul-02 15:55 UTC. Time now 2020-Jul-02 16:05 UTC.
Position N 35°27' E 139°39'.

Length 110.1 m; beam 13.8 m; draft 6 m.

Type: Sailing vessel. MMSI: 431006000.

Date/timePositionNaut miles runAvg speedWind from/ knotsBaromVisibWave heightAir tempDewpointWater temp
2020-Jul-02 15:55N 35°27' E 139°39'0 0.0
2020-Jul-02 14:28N 35°27' E 139°39'0 0.0
2020-Jul-02 11:28N 35°27' E 139°39'0 0.0
2020-Jul-02 10:58N 35°27' E 139°39'0 0.0
2020-Jul-02 10:28N 35°27' E 139°39'0 0.0
2020-Jul-02 09:28N 35°27' E 139°39'0 0.0
2020-Jul-02 08:58N 35°27' E 139°39'0 0.0
2020-Jul-02 06:28N 35°27' E 139°39'0 0.0
2020-Jul-02 03:58N 35°27' E 139°39'0 0.0
2020-Jul-02 03:28N 35°27' E 139°39'0 0.0
2020-Jul-02 02:28N 35°27' E 139°39'0 0.0
2020-Jul-02 01:25N 35°27' E 139°39'0 0.0
2020-Jul-01 23:25N 35°27' E 139°39'0 0.0
2020-Jul-01 18:28N 35°27' E 139°39'0 0.0
2020-Jul-01 15:58N 35°27' E 139°39'0 0.0
2020-Jul-01 13:28N 35°27' E 139°39'0 0.0
2020-Jul-01 05:28N 35°27' E 139°39'0 0.0
2020-Jul-01 03:58N 35°27' E 139°39'0 0.0
2020-Jul-01 02:28N 35°27' E 139°39'0 0.0
2020-Jun-30 23:58N 35°27' E 139°39'0 0.0
2020-Jun-30 21:28N 35°27' E 139°39'0 0.0
2020-Jun-30 18:28N 35°27' E 139°39'0 0.0
2020-Jun-30 17:58N 35°27' E 139°39'0 0.0
2020-Jun-30 17:28N 35°27' E 139°39'0 0.0
2020-Jun-30 16:28N 35°27' E 139°39'0 0.0
2020-Jun-30 15:28N 35°27' E 139°39'0 0.0
2020-Jun-30 14:28N 35°27' E 139°39'0 0.0
2020-Jun-30 13:28N 35°27' E 139°39'0 0.0
2020-Jun-30 11:58N 35°27' E 139°39'0 0.0
2020-Jun-30 07:28N 35°27' E 139°39'0 0.0
2020-Jun-30 06:28N 35°27' E 139°39'0 0.0
2020-Jun-30 03:28N 35°27' E 139°39'0 0.0
2020-Jun-30 02:28N 35°27' E 139°39'0 0.0
2020-Jun-30 00:28N 35°27' E 139°39'0 0.0
2020-Jun-29 22:58N 35°27' E 139°39'0 0.0
2020-Jun-29 22:28N 35°27' E 139°39'0 0.0
2020-Jun-29 21:28N 35°27' E 139°39'0 0.0
2020-Jun-29 16:28N 35°27' E 139°39'0 0.0
2020-Jun-29 15:58N 35°27' E 139°39'0 0.0
2020-Jun-29 13:58N 35°27' E 139°39'0 0.0
2020-Jun-29 13:28N 35°27' E 139°39'0 0.0
2020-Jun-29 06:58N 35°27' E 139°39'0 0.0
2020-Jun-29 05:28N 35°27' E 139°39'0 0.0
2020-Jun-29 04:28N 35°27' E 139°39'2 0.6
2020-Jun-29 00:30N 35°27' E 139°42'11 8.8
2020-Jun-28 23:18N 35°17' E 139°46'8 9.4
2020-Jun-28 22:29N 35°09' E 139°46'5 9.4
2020-Jun-28 21:57N 35°04' E 139°45'240 6.3
2020-Jun-27 07:57N 34°17' E 134°58'4 9.5
2020-Jun-27 07:30N 34°21' E 134°59'14 9.6
2020-Jun-27 06:00N 34°34' E 135°08'8 2.1
2020-Jun-27 02:22N 34°41' E 135°12'0 0.0
2020-Jun-27 01:58N 34°41' E 135°12'0 0.0
2020-Jun-27 00:58N 34°41' E 135°12'0 0.0
2020-Jun-26 22:46N 34°41' E 135°12'0 0.0
2020-Jun-26 20:52N 34°41' E 135°12'0 0.0
2020-Jun-26 20:28N 34°41' E 135°12'0 0.0
2020-Jun-26 18:58N 34°41' E 135°12'0 0.0
2020-Jun-26 17:28N 34°41' E 135°12'0 0.0
2020-Jun-26 15:58N 34°41' E 135°12'0 0.0
2020-Jun-26 13:58N 34°41' E 135°12'0 0.0
2020-Jun-26 12:52N 34°41' E 135°12'0 0.0
2020-Jun-26 12:22N 34°41' E 135°12'0 0.0
2020-Jun-26 11:58N 34°41' E 135°12'0 0.1
2020-Jun-26 11:28N 34°41' E 135°12'0 0.0
2020-Jun-26 10:52N 34°41' E 135°12'0 0.0
2020-Jun-26 07:58N 34°41' E 135°12'0 0.0
2020-Jun-26 07:28N 34°41' E 135°12'0 0.0
2020-Jun-26 06:52N 34°41' E 135°12'0 0.0
2020-Jun-26 05:46N 34°41' E 135°12'0 0.0
2020-Jun-26 05:28N 34°41' E 135°12'0 0.0
2020-Jun-26 02:22N 34°41' E 135°12'2 1.2
2020-Jun-26 00:30N 34°39' E 135°11'2 0.4
2020-Jun-25 19:58N 34°37' E 135°12'0 0.0
2020-Jun-25 18:55N 34°37' E 135°12'0 0.0
2020-Jun-25 17:52N 34°37' E 135°12'0 0.0
2020-Jun-25 16:25N 34°37' E 135°12'0 0.0
2020-Jun-25 14:25N 34°37' E 135°12'0 0.0
2020-Jun-25 12:55N 34°37' E 135°12'0 0.1
2020-Jun-25 12:25N 34°37' E 135°12'0 0.0
2020-Jun-25 11:43N 34°37' E 135°12'0 0.2
2020-Jun-25 11:25N 34°37' E 135°12'0 0.0
2020-Jun-25 09:31N 34°37' E 135°12'0 0.0
2020-Jun-25 08:25N 34°37' E 135°12'0 0.0
2020-Jun-25 04:55N 34°37' E 135°12'1 1.3
2020-Jun-25 04:00N 34°36' E 135°11'8 8.3
2020-Jun-25 03:00N 34°37' E 135°01'8 8.3
2020-Jun-25 02:00N 34°34' E 134°51'4 8.3
2020-Jun-25 01:31N 34°32' E 134°47'16 9.5
2020-Jun-24 23:50N 34°26' E 134°29'  
Track history (hours):
 
Tides and Currents Weather Stations Pressure Air Temp Water Temp Dewpoint Dewpoint Depression Visibility Wind Speed Wind Dir Waves Ship Positions

Kaiwo Maru (Japan)

Built in 1989. Trains merchant marine cadets for Japan's National Institute for Sea Training.

Ship's website: http://www.kohkun.go.jp/en/ships/kaiwomaru.html

Last reported at 2020-Jul-02 15:55 UTC. Time now 2020-Jul-02 16:05 UTC.
Position N 35°27' E 139°39'.

Length 110.1 m; beam 13.8 m; draft 6 m.

Type: Sailing vessel. MMSI: 431006000.

Date/timePositionNaut miles runAvg speedWind from/ knotsBaromVisibWave heightAir tempDewpointWater temp
2020-Jul-02 15:55N 35°27' E 139°39'0 0.0
2020-Jul-02 14:28N 35°27' E 139°39'0 0.0
2020-Jul-02 11:28N 35°27' E 139°39'0 0.0
2020-Jul-02 10:58N 35°27' E 139°39'0 0.0
2020-Jul-02 10:28N 35°27' E 139°39'0 0.0
2020-Jul-02 09:28N 35°27' E 139°39'0 0.0
2020-Jul-02 08:58N 35°27' E 139°39'0 0.0
2020-Jul-02 06:28N 35°27' E 139°39'0 0.0
2020-Jul-02 03:58N 35°27' E 139°39'0 0.0
2020-Jul-02 03:28N 35°27' E 139°39'0 0.0
2020-Jul-02 02:28N 35°27' E 139°39'0 0.0
2020-Jul-02 01:25N 35°27' E 139°39'0 0.0
2020-Jul-01 23:25N 35°27' E 139°39'0 0.0
2020-Jul-01 18:28N 35°27' E 139°39'0 0.0
2020-Jul-01 15:58N 35°27' E 139°39'0 0.0
2020-Jul-01 13:28N 35°27' E 139°39'0 0.0
2020-Jul-01 05:28N 35°27' E 139°39'0 0.0
2020-Jul-01 03:58N 35°27' E 139°39'0 0.0
2020-Jul-01 02:28N 35°27' E 139°39'0 0.0
2020-Jun-30 23:58N 35°27' E 139°39'0 0.0
2020-Jun-30 21:28N 35°27' E 139°39'0 0.0
2020-Jun-30 18:28N 35°27' E 139°39'0 0.0
2020-Jun-30 17:58N 35°27' E 139°39'0 0.0
2020-Jun-30 17:28N 35°27' E 139°39'0 0.0
2020-Jun-30 16:28N 35°27' E 139°39'0 0.0
2020-Jun-30 15:28N 35°27' E 139°39'0 0.0
2020-Jun-30 14:28N 35°27' E 139°39'0 0.0
2020-Jun-30 13:28N 35°27' E 139°39'0 0.0
2020-Jun-30 11:58N 35°27' E 139°39'0 0.0
2020-Jun-30 07:28N 35°27' E 139°39'0 0.0
2020-Jun-30 06:28N 35°27' E 139°39'0 0.0
2020-Jun-30 03:28N 35°27' E 139°39'0 0.0
2020-Jun-30 02:28N 35°27' E 139°39'0 0.0
2020-Jun-30 00:28N 35°27' E 139°39'0 0.0
2020-Jun-29 22:58N 35°27' E 139°39'0 0.0
2020-Jun-29 22:28N 35°27' E 139°39'0 0.0
2020-Jun-29 21:28N 35°27' E 139°39'0 0.0
2020-Jun-29 16:28N 35°27' E 139°39'0 0.0
2020-Jun-29 15:58N 35°27' E 139°39'0 0.0
2020-Jun-29 13:58N 35°27' E 139°39'0 0.0
2020-Jun-29 13:28N 35°27' E 139°39'0 0.0
2020-Jun-29 06:58N 35°27' E 139°39'0 0.0
2020-Jun-29 05:28N 35°27' E 139°39'0 0.0
2020-Jun-29 04:28N 35°27' E 139°39'2 0.6
2020-Jun-29 00:30N 35°27' E 139°42'11 8.8
2020-Jun-28 23:18N 35°17' E 139°46'8 9.4
2020-Jun-28 22:29N 35°09' E 139°46'5 9.4
2020-Jun-28 21:57N 35°04' E 139°45'240 6.3
2020-Jun-27 07:57N 34°17' E 134°58'4 9.5
2020-Jun-27 07:30N 34°21' E 134°59'14 9.6
2020-Jun-27 06:00N 34°34' E 135°08'8 2.1
2020-Jun-27 02:22N 34°41' E 135°12'0 0.0
2020-Jun-27 01:58N 34°41' E 135°12'0 0.0
2020-Jun-27 00:58N 34°41' E 135°12'0 0.0
2020-Jun-26 22:46N 34°41' E 135°12'0 0.0
2020-Jun-26 20:52N 34°41' E 135°12'0 0.0
2020-Jun-26 20:28N 34°41' E 135°12'0 0.0
2020-Jun-26 18:58N 34°41' E 135°12'0 0.0
2020-Jun-26 17:28N 34°41' E 135°12'0 0.0
2020-Jun-26 15:58N 34°41' E 135°12'0 0.0
2020-Jun-26 13:58N 34°41' E 135°12'0 0.0
2020-Jun-26 12:52N 34°41' E 135°12'0 0.0
2020-Jun-26 12:22N 34°41' E 135°12'0 0.0
2020-Jun-26 11:58N 34°41' E 135°12'0 0.1
2020-Jun-26 11:28N 34°41' E 135°12'0 0.0
2020-Jun-26 10:52N 34°41' E 135°12'0 0.0
2020-Jun-26 07:58N 34°41' E 135°12'0 0.0
2020-Jun-26 07:28N 34°41' E 135°12'0 0.0
2020-Jun-26 06:52N 34°41' E 135°12'0 0.0
2020-Jun-26 05:46N 34°41' E 135°12'0 0.0
2020-Jun-26 05:28N 34°41' E 135°12'0 0.0
2020-Jun-26 02:22N 34°41' E 135°12'2 1.2
2020-Jun-26 00:30N 34°39' E 135°11'2 0.4
2020-Jun-25 19:58N 34°37' E 135°12'0 0.0
2020-Jun-25 18:55N 34°37' E 135°12'0 0.0
2020-Jun-25 17:52N 34°37' E 135°12'0 0.0
2020-Jun-25 16:25N 34°37' E 135°12'0 0.0
2020-Jun-25 14:25N 34°37' E 135°12'0 0.0
2020-Jun-25 12:55N 34°37' E 135°12'0 0.1
2020-Jun-25 12:25N 34°37' E 135°12'0 0.0
2020-Jun-25 11:43N 34°37' E 135°12'0 0.2
2020-Jun-25 11:25N 34°37' E 135°12'0 0.0
2020-Jun-25 09:31N 34°37' E 135°12'0 0.0
2020-Jun-25 08:25N 34°37' E 135°12'0 0.0
2020-Jun-25 04:55N 34°37' E 135°12'1 1.3
2020-Jun-25 04:00N 34°36' E 135°11'8 8.3
2020-Jun-25 03:00N 34°37' E 135°01'8 8.3
2020-Jun-25 02:00N 34°34' E 134°51'4 8.3
2020-Jun-25 01:31N 34°32' E 134°47'16 9.5
2020-Jun-24 23:50N 34°26' E 134°29'  

Dump ship's entire track history